Memphis, Nebraska
Current Conditions -  °F | °C
As of 2:35 PM on Monday 22 Dec 2014 (Local Time) from KAHQ Reporting Station
Drizzle Drizzle  
Wind Chill: 37°   Ceiling: 1500
Heat Index: 43°   Visibility: 5mi
Dew Point: 39°   Wind: 10mph
Humidity: 88%   Direction: 320°NW
Pressure: 29.41"   Gusts: NA
Location:  41.1°N, 96.43°W
Report Text: KAHQ 222035Z AUTO 32009KT 5SM DZ SCT008 OVC015 06/04 A2941 RMK AO2 T00600041
Loading
Personal Weather Stations






























Interactive Weather Map New forecast layout! Learn more

10-Day Weather Forecast

Advertisements
Track Severe Weather on mobile